createdAt,value
2023-05-29T00:05:07.229Z,12.82
2023-05-29T00:07:36.029Z,19.92
2023-05-29T00:10:05.262Z,23.10
2023-05-29T00:12:33.659Z,15.00
2023-05-29T00:15:01.757Z,21.35
2023-05-29T00:17:30.710Z,17.42
2023-05-29T00:20:00.671Z,15.38
2023-05-29T00:22:29.852Z,23.30
2023-05-29T00:24:57.451Z,26.80
2023-05-29T00:27:25.867Z,20.50
2023-05-29T00:29:53.969Z,19.23
2023-05-29T00:32:21.628Z,26.83
2023-05-29T00:34:49.454Z,15.32
2023-05-29T00:37:17.485Z,25.73
2023-05-29T00:39:46.739Z,17.10
2023-05-29T00:42:15.250Z,21.33
2023-05-29T00:44:43.075Z,23.35
2023-05-29T00:47:11.014Z,18.33
2023-05-29T00:49:39.888Z,16.55
2023-05-29T00:52:09.869Z,27.35
2023-05-29T00:54:37.971Z,18.55
2023-05-29T00:57:06.777Z,20.55
2023-05-29T00:59:35.246Z,21.20
2023-05-29T01:02:04.281Z,21.75
2023-05-29T01:04:37.508Z,24.45
2023-05-29T01:07:05.510Z,25.60
2023-05-29T01:09:35.300Z,23.88
2023-05-29T01:12:06.648Z,30.02
2023-05-29T01:14:53.252Z,26.55
2023-05-29T01:17:31.363Z,22.83
2023-05-29T01:20:15.327Z,20.33
2023-05-29T01:22:46.208Z,31.30
2023-05-29T01:25:21.528Z,21.75
2023-05-29T01:27:50.068Z,23.08
2023-05-29T01:30:17.992Z,20.42
2023-05-29T01:32:46.089Z,27.77
2023-05-29T01:35:16.420Z,20.80
2023-05-29T01:37:44.313Z,17.67
2023-05-29T01:40:12.665Z,21.70
2023-05-29T01:42:41.289Z,20.33
2023-05-29T01:45:09.999Z,22.65
2023-05-29T01:47:37.706Z,16.30
2023-05-29T01:50:06.966Z,26.00
2023-05-29T01:52:36.485Z,22.35
2023-05-29T01:55:07.414Z,22.15
2023-05-29T01:57:35.685Z,21.20
2023-05-29T02:00:10.223Z,20.52
2023-05-29T02:02:44.760Z,22.00
2023-05-29T02:05:12.825Z,20.02
2023-05-29T02:07:40.646Z,25.48
2023-05-29T02:10:10.941Z,26.27
2023-05-29T02:12:38.694Z,27.95
2023-05-29T02:15:07.470Z,16.95
2023-05-29T02:17:35.646Z,21.88
2023-05-29T02:20:06.600Z,19.60
2023-05-29T02:22:34.919Z,36.10
2023-05-29T02:25:02.760Z,24.13
2023-05-29T02:27:32.636Z,30.33
2023-05-29T02:30:01.936Z,26.55
2023-05-29T02:32:30.817Z,20.25
2023-05-29T02:35:02.195Z,23.85
2023-05-29T02:37:30.914Z,21.65
2023-05-29T02:40:01.249Z,18.45
2023-05-29T02:42:29.683Z,24.05
2023-05-29T02:44:59.861Z,24.13
2023-05-29T02:47:27.819Z,25.83
2023-05-29T02:49:55.536Z,24.60
2023-05-29T02:52:25.512Z,24.33
2023-05-29T02:54:54.870Z,24.75
2023-05-29T02:57:24.807Z,27.52
2023-05-29T02:59:53.387Z,27.50
2023-05-29T03:02:21.132Z,19.58
2023-05-29T03:04:52.243Z,19.23
2023-05-29T03:07:21.004Z,23.38
2023-05-29T03:09:48.861Z,24.52
2023-05-29T03:12:18.673Z,21.25
2023-05-29T03:14:46.668Z,25.33
2023-05-29T03:17:15.461Z,18.05
2023-05-29T03:19:43.213Z,31.38
2023-05-29T03:22:13.021Z,30.45
2023-05-29T03:24:41.864Z,20.42
2023-05-29T03:27:11.823Z,30.60
2023-05-29T03:29:39.974Z,26.20
2023-05-29T03:32:09.893Z,19.73
2023-05-29T03:34:37.781Z,20.13
2023-05-29T03:37:08.023Z,26.13
2023-05-29T03:39:36.020Z,22.55
2023-05-29T03:42:05.318Z,24.77
2023-05-29T03:44:35.647Z,19.80
2023-05-29T03:47:05.382Z,25.30
2023-05-29T03:49:36.093Z,21.83
2023-05-29T03:52:04.600Z,26.73
2023-05-29T03:54:33.012Z,19.88
2023-05-29T03:57:08.083Z,20.02
2023-05-29T03:59:35.843Z,31.38
2023-05-29T04:02:03.924Z,23.30
2023-05-29T04:04:32.438Z,28.55
2023-05-29T04:07:01.589Z,27.73
2023-05-29T04:09:30.585Z,28.95
2023-05-29T04:11:59.969Z,25.17
2023-05-29T04:14:28.065Z,31.20
2023-05-29T04:16:58.186Z,20.45
2023-05-29T04:19:27.191Z,23.70
2023-05-29T04:21:55.087Z,31.00
2023-05-29T04:24:22.908Z,21.80
2023-05-29T04:26:51.029Z,27.58
2023-05-29T04:31:48.605Z,23.83
2023-05-29T04:34:18.827Z,24.67
2023-05-29T04:36:51.054Z,27.55
2023-05-29T04:41:46.485Z,29.00
2023-05-29T04:44:18.566Z,21.75
2023-05-29T04:46:53.577Z,26.10
2023-05-29T04:49:23.381Z,26.70
2023-05-29T04:51:53.926Z,27.58
2023-05-29T04:56:53.016Z,28.67
2023-05-29T04:59:24.664Z,30.92
2023-05-29T05:01:53.027Z,18.30
2023-05-29T05:04:22.216Z,30.05
2023-05-29T05:06:50.443Z,18.63
2023-05-29T05:09:19.373Z,30.45
2023-05-29T05:11:47.467Z,22.92
2023-05-29T05:14:15.165Z,18.10
2023-05-29T05:16:43.058Z,40.30
2023-05-29T05:19:11.740Z,19.13
2023-05-29T05:21:42.374Z,31.85
2023-05-29T05:24:11.714Z,29.70
2023-05-29T05:26:41.449Z,17.23
2023-05-29T05:29:09.699Z,32.22
2023-05-29T05:31:40.642Z,24.90
2023-05-29T05:34:09.826Z,29.92
2023-05-29T05:36:38.027Z,28.45
2023-05-29T05:39:12.484Z,21.42
2023-05-29T05:41:41.209Z,29.05
2023-05-29T05:44:09.303Z,19.02
2023-05-29T05:46:48.730Z,28.80
2023-05-29T05:49:16.710Z,31.40
2023-05-29T05:51:44.347Z,26.63
2023-05-29T05:54:14.433Z,18.35
2023-05-29T05:56:42.720Z,23.53
2023-05-29T05:59:15.538Z,20.65
2023-05-29T06:01:43.656Z,42.55
2023-05-29T06:04:12.313Z,23.33
2023-05-29T06:06:40.799Z,19.65
2023-05-29T06:09:10.486Z,23.80
2023-05-29T06:11:38.947Z,24.83
2023-05-29T06:14:07.396Z,17.80
2023-05-29T06:16:35.984Z,21.48
2023-05-29T06:19:05.639Z,21.35
2023-05-29T06:21:41.156Z,22.45
2023-05-29T06:24:09.330Z,16.42
2023-05-29T06:26:38.542Z,23.35
2023-05-29T06:29:08.834Z,30.13
2023-05-29T06:31:36.520Z,22.60
2023-05-29T06:34:04.575Z,19.77
2023-05-29T06:36:33.908Z,29.58
2023-05-29T06:39:03.678Z,31.77
2023-05-29T06:41:31.742Z,20.50
2023-05-29T06:44:00.575Z,16.23
2023-05-29T06:46:30.075Z,18.55
2023-05-29T06:48:59.607Z,23.77
2023-05-29T06:51:27.991Z,24.73
2023-05-29T06:53:57.394Z,24.88
2023-05-29T06:56:33.144Z,24.63
2023-05-29T06:59:01.694Z,31.17
2023-05-29T07:01:32.327Z,24.67
2023-05-29T07:04:03.826Z,20.63
2023-05-29T07:06:32.936Z,22.17
2023-05-29T07:09:02.701Z,24.00
2023-05-29T07:11:32.529Z,15.48
2023-05-29T07:14:01.829Z,21.55
2023-05-29T07:16:31.208Z,22.95
2023-05-29T07:19:05.926Z,19.08
2023-05-29T07:21:39.444Z,20.10
2023-05-29T07:24:08.053Z,20.77
2023-05-29T07:26:40.348Z,22.40
2023-05-29T07:29:08.212Z,22.15
2023-05-29T07:31:36.853Z,27.17
2023-05-29T07:34:04.679Z,19.73
2023-05-29T07:36:32.601Z,15.43
2023-05-29T07:39:02.519Z,20.92
2023-05-29T07:41:33.850Z,20.30
2023-05-29T07:44:02.686Z,19.83
2023-05-29T07:46:39.792Z,25.38
2023-05-29T07:49:29.465Z,20.58
2023-05-29T07:51:57.776Z,14.77
2023-05-29T07:54:25.362Z,23.83
2023-05-29T07:56:53.791Z,18.83
2023-05-29T07:59:22.753Z,18.00
2023-05-29T08:01:51.021Z,21.92
2023-05-29T08:04:38.846Z,12.82
2023-05-29T08:07:06.696Z,30.02
2023-05-29T08:09:34.586Z,19.02
2023-05-29T08:12:04.495Z,18.77
2023-05-29T08:14:33.296Z,18.38
2023-05-29T08:17:03.794Z,25.48
2023-05-29T08:22:04.234Z,14.98
2023-05-29T08:24:36.018Z,13.60
2023-05-29T08:27:04.420Z,12.88
2023-05-29T08:29:31.982Z,17.10
2023-05-29T08:32:00.774Z,15.35
2023-05-29T08:34:29.352Z,18.70
2023-05-29T08:36:56.896Z,13.13
2023-05-29T08:39:24.998Z,15.30
2023-05-29T08:42:03.403Z,23.50
2023-05-29T08:44:33.643Z,16.83
2023-05-29T08:47:05.958Z,18.42
2023-05-29T08:49:39.061Z,13.65
2023-05-29T08:52:29.694Z,15.10
2023-05-29T08:55:01.961Z,13.30
2023-05-29T08:57:32.175Z,15.18
2023-05-29T09:00:02.449Z,15.20
2023-05-29T09:02:30.883Z,15.27
2023-05-29T09:05:00.574Z,17.08
2023-05-29T09:07:29.660Z,14.47
2023-05-29T09:09:57.360Z,14.35
2023-05-29T09:12:26.656Z,16.08
2023-05-29T09:14:54.573Z,17.75
2023-05-29T09:17:23.143Z,12.82
2023-05-29T09:19:50.933Z,13.90
2023-05-29T09:22:18.521Z,13.90
2023-05-29T09:24:58.149Z,13.55
2023-05-29T09:27:27.555Z,16.25
2023-05-29T09:30:02.210Z,13.10
2023-05-29T09:32:35.691Z,14.65
2023-05-29T09:35:04.363Z,11.43
2023-05-29T09:37:33.049Z,16.65
2023-05-29T09:40:02.315Z,14.80
2023-05-29T09:42:31.648Z,20.73
2023-05-29T09:45:04.426Z,29.13
2023-05-29T09:47:35.613Z,14.90
2023-05-29T09:50:03.457Z,15.90
2023-05-29T09:52:33.558Z,11.95
2023-05-29T09:55:07.699Z,13.48
2023-05-29T09:57:35.407Z,13.10
2023-05-29T10:00:05.279Z,12.25
2023-05-29T10:02:41.535Z,12.20
2023-05-29T10:05:10.544Z,10.00
2023-05-29T10:07:38.932Z,15.05
2023-05-29T10:10:22.135Z,12.70
2023-05-29T10:12:50.486Z,11.85
2023-05-29T10:15:31.439Z,15.07
2023-05-29T10:18:01.610Z,11.15
2023-05-29T10:20:31.526Z,12.50
2023-05-29T10:23:01.078Z,16.92
2023-05-29T10:25:32.014Z,10.77
2023-05-29T10:28:01.697Z,15.75
2023-05-29T10:30:41.351Z,8.57
2023-05-29T10:33:22.190Z,11.60
2023-05-29T10:35:54.404Z,12.88
2023-05-29T10:38:25.124Z,11.85
2023-05-29T10:40:52.730Z,10.13
2023-05-29T10:43:36.719Z,6.55
2023-05-29T10:46:04.656Z,10.55
2023-05-29T10:48:39.050Z,11.85
2023-05-29T10:51:10.347Z,10.55
2023-05-29T10:53:43.289Z,8.95
2023-05-29T10:56:12.536Z,16.08
2023-05-29T10:58:41.637Z,10.45
2023-05-29T11:01:11.489Z,13.80
2023-05-29T11:03:39.019Z,11.85
2023-05-29T11:06:30.500Z,12.02
2023-05-29T11:08:59.720Z,9.55
2023-05-29T11:11:37.970Z,12.23
2023-05-29T11:14:08.914Z,17.10
2023-05-29T11:16:36.994Z,14.32
2023-05-29T11:19:07.991Z,16.15
2023-05-29T11:21:37.377Z,9.23
2023-05-29T11:24:08.659Z,8.33
2023-05-29T11:26:39.345Z,13.55
2023-05-29T11:29:12.162Z,10.45
2023-05-29T11:31:41.504Z,14.95
2023-05-29T11:34:11.802Z,14.93
2023-05-29T11:36:39.726Z,11.13
2023-05-29T11:39:07.649Z,10.85
2023-05-29T11:41:35.365Z,15.30
2023-05-29T11:44:04.008Z,12.25
2023-05-29T11:46:35.952Z,10.98
2023-05-29T11:49:03.890Z,15.85
2023-05-29T11:51:31.711Z,10.48
2023-05-29T11:54:00.487Z,7.63
2023-05-29T11:56:30.939Z,10.20
2023-05-29T11:59:01.214Z,15.55
2023-05-29T12:01:31.894Z,11.50
2023-05-29T12:04:00.827Z,11.13
2023-05-29T12:06:35.709Z,10.70
2023-05-29T12:09:05.201Z,10.98
2023-05-29T12:11:37.536Z,11.57
2023-05-29T12:14:05.282Z,10.45
2023-05-29T12:16:35.265Z,10.85
2023-05-29T12:19:03.284Z,15.48
2023-05-29T12:21:34.872Z,12.68
2023-05-29T12:24:14.095Z,12.15
2023-05-29T12:29:11.192Z,12.10
2023-05-29T12:31:40.416Z,9.55
2023-05-29T12:34:13.669Z,15.50
2023-05-29T12:36:44.449Z,12.88
2023-05-29T12:39:12.092Z,12.20
2023-05-29T12:41:41.033Z,12.30
2023-05-29T12:44:09.843Z,12.13
2023-05-29T12:46:41.590Z,15.65
2023-05-29T12:49:22.529Z,16.85
2023-05-29T12:51:50.596Z,9.80
2023-05-29T12:54:19.007Z,16.13
2023-05-29T12:56:47.596Z,16.15
2023-05-29T12:59:19.420Z,11.95
2023-05-29T13:01:47.163Z,11.77
2023-05-29T13:04:14.872Z,15.50
2023-05-29T13:06:42.774Z,18.63
2023-05-29T13:09:10.825Z,10.77
2023-05-29T13:11:38.918Z,10.88
2023-05-29T13:14:07.326Z,15.10
2023-05-29T13:16:36.761Z,20.15
2023-05-29T13:19:04.435Z,17.05
2023-05-29T13:21:32.213Z,16.83
2023-05-29T13:24:03.890Z,17.38
2023-05-29T13:26:31.933Z,14.02
2023-05-29T13:29:01.789Z,13.38
2023-05-29T13:31:30.509Z,17.08
2023-05-29T13:34:04.748Z,19.92
2023-05-29T13:36:32.516Z,10.25
2023-05-29T13:39:02.210Z,13.85
2023-05-29T13:41:30.699Z,16.23
2023-05-29T13:44:00.759Z,11.75
2023-05-29T13:46:32.009Z,12.07
2023-05-29T13:49:01.464Z,19.95
2023-05-29T13:51:30.629Z,15.80
2023-05-29T13:54:00.440Z,14.57
2023-05-29T13:56:32.573Z,12.50
2023-05-29T13:59:06.341Z,14.45
2023-05-29T14:01:35.181Z,10.13
2023-05-29T14:04:02.986Z,13.60
2023-05-29T14:06:35.435Z,14.82
2023-05-29T14:09:03.617Z,12.55
2023-05-29T14:11:31.637Z,14.50
2023-05-29T14:14:00.575Z,10.27
2023-05-29T14:16:29.847Z,11.95
2023-05-29T14:18:59.618Z,10.93
2023-05-29T14:21:34.965Z,14.45
2023-05-29T14:24:02.883Z,12.88
2023-05-29T14:26:34.756Z,10.02
2023-05-29T14:29:13.404Z,17.08
2023-05-29T14:31:42.930Z,14.63
2023-05-29T14:34:11.088Z,15.75
2023-05-29T14:36:39.397Z,11.98
2023-05-29T14:39:07.338Z,14.15
2023-05-29T14:41:36.597Z,12.13
2023-05-29T14:44:04.823Z,10.03
2023-05-29T14:46:33.442Z,12.55
2023-05-29T14:49:03.813Z,13.75
2023-05-29T14:51:31.570Z,15.20
2023-05-29T14:54:02.160Z,10.27
2023-05-29T14:56:30.989Z,12.93
2023-05-29T14:59:01.296Z,11.15
2023-05-29T15:01:30.357Z,12.57
2023-05-29T15:04:00.147Z,14.88
2023-05-29T15:06:30.713Z,16.40
2023-05-29T15:09:00.792Z,9.23
2023-05-29T15:11:34.154Z,13.57
2023-05-29T15:14:01.897Z,17.85
2023-05-29T15:16:30.781Z,11.38
2023-05-29T15:19:00.098Z,13.98
2023-05-29T15:21:29.799Z,14.80
2023-05-29T15:23:57.391Z,14.15
2023-05-29T15:26:24.997Z,16.13
2023-05-29T15:28:52.614Z,14.32
2023-05-29T15:31:20.545Z,11.20
2023-05-29T15:33:48.310Z,15.00
2023-05-29T15:36:17.539Z,9.48
2023-05-29T15:38:45.088Z,16.55
2023-05-29T15:41:14.190Z,10.35
2023-05-29T15:43:43.041Z,12.70
2023-05-29T15:46:11.036Z,11.73
2023-05-29T15:48:38.882Z,12.82
2023-05-29T15:51:06.738Z,10.55
2023-05-29T15:53:43.050Z,15.75
2023-05-29T15:56:10.768Z,13.45
2023-05-29T15:58:39.671Z,9.57
2023-05-29T16:01:08.420Z,12.82
2023-05-29T16:03:39.738Z,9.13
2023-05-29T16:06:08.767Z,10.43
2023-05-29T16:08:38.331Z,12.18
2023-05-29T16:11:08.741Z,13.70
2023-05-29T16:13:36.825Z,14.55
2023-05-29T16:16:06.133Z,15.10
2023-05-29T16:18:33.966Z,11.85
2023-05-29T16:21:04.792Z,15.90
2023-05-29T16:23:32.839Z,17.50
2023-05-29T16:26:01.704Z,11.07
2023-05-29T16:28:30.594Z,13.20
2023-05-29T16:31:01.308Z,18.77
2023-05-29T16:33:30.127Z,11.50
2023-05-29T16:36:00.123Z,10.77
2023-05-29T16:38:30.450Z,13.13
2023-05-29T16:40:59.615Z,12.43
2023-05-29T16:43:34.511Z,13.68
2023-05-29T16:46:08.472Z,15.23
2023-05-29T16:48:40.522Z,13.13
2023-05-29T16:51:09.052Z,13.98
2023-05-29T16:53:37.023Z,19.50
2023-05-29T16:56:05.554Z,17.63
2023-05-29T16:58:33.257Z,14.48
2023-05-29T17:01:02.145Z,13.15
2023-05-29T17:03:35.106Z,10.70
2023-05-29T17:06:02.798Z,13.75
2023-05-29T17:08:33.643Z,11.95
2023-05-29T17:11:04.039Z,15.52
2023-05-29T17:13:32.344Z,22.38
2023-05-29T17:16:00.791Z,12.63
2023-05-29T17:18:32.264Z,14.77
2023-05-29T17:21:00.776Z,13.27
2023-05-29T17:23:29.351Z,10.77
2023-05-29T17:25:57.630Z,14.05
2023-05-29T17:28:30.723Z,14.38
2023-05-29T17:31:01.228Z,11.40
2023-05-29T17:36:01.324Z,11.10
2023-05-29T17:38:29.559Z,16.40
2023-05-29T17:40:57.334Z,14.20
2023-05-29T17:43:25.016Z,12.55
2023-05-29T17:45:57.229Z,12.27
2023-05-29T17:48:25.579Z,10.50
2023-05-29T17:50:53.316Z,9.95
2023-05-29T17:53:21.909Z,11.90
2023-05-29T17:55:49.816Z,10.57
2023-05-29T17:58:17.704Z,12.05
2023-05-29T18:00:45.813Z,10.40
2023-05-29T18:03:14.281Z,8.60
2023-05-29T18:05:42.973Z,12.23
2023-05-29T18:08:16.452Z,11.40
2023-05-29T18:10:44.504Z,10.73
2023-05-29T18:13:12.318Z,12.93
2023-05-29T18:15:42.869Z,11.30
2023-05-29T18:18:14.744Z,12.38
2023-05-29T18:20:43.537Z,11.93
2023-05-29T18:23:11.708Z,12.35
2023-05-29T18:25:43.646Z,14.57
2023-05-29T18:28:11.672Z,15.77
2023-05-29T18:30:44.414Z,13.18
2023-05-29T18:33:13.024Z,16.23
2023-05-29T18:35:44.306Z,10.25
2023-05-29T18:38:14.405Z,12.68
2023-05-29T18:40:43.489Z,20.17
2023-05-29T18:43:11.371Z,11.50
2023-05-29T18:45:39.387Z,11.80
2023-05-29T18:48:07.140Z,16.02
2023-05-29T18:50:35.738Z,12.98
2023-05-29T18:53:04.668Z,8.60
2023-05-29T18:55:32.463Z,9.60
2023-05-29T18:58:03.500Z,7.88
2023-05-29T19:00:32.476Z,9.68
2023-05-29T19:03:01.001Z,10.18
2023-05-29T19:05:31.233Z,12.27
2023-05-29T19:08:03.365Z,10.90
2023-05-29T19:10:32.155Z,8.05
2023-05-29T19:13:00.700Z,12.88
2023-05-29T19:15:29.793Z,11.88
2023-05-29T19:18:01.347Z,11.18
2023-05-29T19:20:30.480Z,13.57
2023-05-29T19:22:59.934Z,11.13
2023-05-29T19:25:28.503Z,16.23
2023-05-29T19:27:57.976Z,15.13
2023-05-29T19:30:26.962Z,12.05
2023-05-29T19:32:54.681Z,15.98
2023-05-29T19:35:22.686Z,12.07
2023-05-29T19:37:50.597Z,10.40
2023-05-29T19:40:18.364Z,8.98
2023-05-29T19:42:46.075Z,11.43
2023-05-29T19:45:18.698Z,13.13
2023-05-29T19:47:46.424Z,14.30
2023-05-29T19:50:15.399Z,11.93
2023-05-29T19:52:44.134Z,13.98
2023-05-29T19:55:12.122Z,9.80
2023-05-29T19:57:40.718Z,10.60
2023-05-29T20:00:10.318Z,8.75
2023-05-29T20:02:42.989Z,14.80
2023-05-29T20:05:11.442Z,9.77
2023-05-29T20:07:39.138Z,10.65
2023-05-29T20:10:07.679Z,12.38
2023-05-29T20:12:35.883Z,10.55
2023-05-29T20:15:06.373Z,11.40
2023-05-29T20:17:34.377Z,9.50
2023-05-29T20:20:05.131Z,10.95
2023-05-29T20:22:32.727Z,12.18
2023-05-29T20:25:01.182Z,14.30
2023-05-29T20:27:29.504Z,16.73
2023-05-29T20:29:57.373Z,16.40
2023-05-29T20:32:26.209Z,12.57
2023-05-29T20:34:54.011Z,13.57
2023-05-29T20:37:25.162Z,9.98
2023-05-29T20:39:55.496Z,14.00
2023-05-29T20:42:23.740Z,18.63
2023-05-29T20:44:52.034Z,12.15
2023-05-29T20:47:20.017Z,13.10
2023-05-29T20:49:48.117Z,13.70
2023-05-29T20:52:15.740Z,19.67
2023-05-29T20:54:44.359Z,13.52
2023-05-29T20:57:16.600Z,15.15
2023-05-29T20:59:44.605Z,10.63
2023-05-29T21:02:12.403Z,22.30
2023-05-29T21:04:40.475Z,16.00
2023-05-29T21:07:08.367Z,10.48
2023-05-29T21:09:36.456Z,17.10
2023-05-29T21:12:04.718Z,14.23
2023-05-29T21:14:32.784Z,14.85
2023-05-29T21:17:02.189Z,11.30
2023-05-29T21:19:38.025Z,14.73
2023-05-29T21:22:05.951Z,14.60
2023-05-29T21:24:34.970Z,11.73
2023-05-29T21:27:03.788Z,15.48
2023-05-29T21:29:31.909Z,22.55
2023-05-29T21:32:00.714Z,15.32
2023-05-29T21:34:30.860Z,15.27
2023-05-29T21:36:59.531Z,18.52
2023-05-29T21:39:27.377Z,17.75
2023-05-29T21:41:55.783Z,14.50
2023-05-29T21:44:24.275Z,9.88
2023-05-29T21:46:52.903Z,13.63
2023-05-29T21:49:21.109Z,13.85
2023-05-29T21:51:48.794Z,14.77
2023-05-29T21:54:17.941Z,19.17
2023-05-29T21:56:45.623Z,16.42
2023-05-29T21:59:13.840Z,14.93
2023-05-29T22:01:42.864Z,12.40
2023-05-29T22:04:12.790Z,16.55
2023-05-29T22:06:42.010Z,10.98
2023-05-29T22:09:09.984Z,14.57
2023-05-29T22:11:39.393Z,15.68
2023-05-29T22:14:07.534Z,14.48
2023-05-29T22:16:35.990Z,22.52
2023-05-29T22:19:06.592Z,18.05
2023-05-29T22:21:35.028Z,20.20
2023-05-29T22:24:03.813Z,20.00
2023-05-29T22:26:32.576Z,16.10
2023-05-29T22:29:03.332Z,17.70
2023-05-29T22:31:33.342Z,18.13
2023-05-29T22:34:02.277Z,13.05
2023-05-29T22:36:34.119Z,22.17
2023-05-29T22:39:03.122Z,14.05
2023-05-29T22:41:31.691Z,19.75
2023-05-29T22:44:02.299Z,19.50
2023-05-29T22:46:33.173Z,14.48
2023-05-29T22:49:02.852Z,15.25
2023-05-29T22:51:33.392Z,18.00
2023-05-29T22:56:32.267Z,13.98
2023-05-29T22:59:00.772Z,10.60
2023-05-29T23:01:29.636Z,28.23
2023-05-29T23:03:57.208Z,11.85
2023-05-29T23:06:24.835Z,23.05
2023-05-29T23:08:53.087Z,17.52
2023-05-29T23:11:21.025Z,14.52
2023-05-29T23:13:48.672Z,14.18
2023-05-29T23:16:18.388Z,13.98
2023-05-29T23:18:46.193Z,19.67
2023-05-29T23:21:13.900Z,18.50
2023-05-29T23:23:41.743Z,16.15
2023-05-29T23:26:09.508Z,18.20
2023-05-29T23:28:37.124Z,14.57
2023-05-29T23:31:04.696Z,17.83
2023-05-29T23:33:32.499Z,19.85
2023-05-29T23:36:01.254Z,19.08
2023-05-29T23:38:29.802Z,17.60
2023-05-29T23:40:57.928Z,16.88
2023-05-29T23:43:30.921Z,20.52
2023-05-29T23:46:00.385Z,11.35
2023-05-29T23:48:29.191Z,22.37
2023-05-29T23:51:02.482Z,16.25
2023-05-29T23:53:30.988Z,13.65
2023-05-29T23:56:01.168Z,21.63
2023-05-29T23:58:29.501Z,17.10
